createdAt,value
2019-03-15T00:02:18.556Z,1.30
2019-03-15T00:07:21.241Z,1.30
2019-03-15T00:12:23.957Z,1.50
2019-03-15T00:17:26.647Z,1.70
2019-03-15T00:22:29.393Z,2.50
2019-03-15T00:27:32.113Z,1.60
2019-03-15T00:32:34.891Z,1.63
2019-03-15T00:37:37.615Z,1.43
2019-03-15T00:42:40.490Z,1.70
2019-03-15T00:47:43.229Z,2.47
2019-03-15T00:52:46.021Z,2.43
2019-03-15T00:57:48.707Z,1.93
2019-03-15T01:02:51.413Z,2.30
2019-03-15T01:07:54.207Z,1.40
2019-03-15T01:12:56.938Z,1.97
2019-03-15T01:17:59.627Z,1.43
2019-03-15T01:23:02.327Z,2.80
2019-03-15T01:28:06.623Z,1.40
2019-03-15T01:33:09.366Z,2.10
2019-03-15T01:38:12.057Z,0.83
2019-03-15T01:43:14.805Z,1.97
2019-03-15T01:48:17.547Z,1.40
2019-03-15T01:53:20.300Z,2.13
2019-03-15T01:58:23.012Z,1.80
2019-03-15T02:03:25.715Z,1.63
2019-03-15T02:08:28.418Z,1.27
2019-03-15T02:13:31.120Z,1.90
2019-03-15T02:18:33.844Z,2.40
2019-03-15T02:23:36.557Z,1.83
2019-03-15T02:28:39.262Z,2.60
2019-03-15T02:33:41.952Z,1.87
2019-03-15T02:38:44.673Z,2.47
2019-03-15T02:43:47.416Z,1.60
2019-03-15T02:48:50.094Z,2.60
2019-03-15T02:53:52.800Z,2.37
2019-03-15T02:58:55.518Z,1.80
2019-03-15T03:03:58.248Z,2.53
2019-03-15T03:09:00.949Z,2.03
2019-03-15T03:14:04.288Z,2.50
2019-03-15T03:19:07.170Z,1.97
2019-03-15T03:24:09.889Z,1.87
2019-03-15T03:29:12.583Z,1.80
2019-03-15T03:34:15.299Z,1.50
2019-03-15T03:39:18.007Z,2.53
2019-03-15T03:44:20.725Z,1.53
2019-03-15T03:49:23.449Z,1.93
2019-03-15T03:54:26.660Z,2.20
2019-03-15T03:59:29.618Z,1.80
2019-03-15T04:04:32.422Z,2.10
2019-03-15T04:09:35.357Z,2.90
2019-03-15T04:14:38.161Z,2.50
2019-03-15T04:19:41.868Z,1.50
2019-03-15T04:24:44.602Z,2.20
2019-03-15T04:29:47.353Z,1.83
2019-03-15T04:34:50.043Z,1.87
2019-03-15T04:39:52.765Z,2.07
2019-03-15T04:44:55.549Z,2.20
2019-03-15T04:49:58.243Z,1.97
2019-03-15T04:55:00.941Z,1.60
2019-03-15T05:00:04.710Z,2.17
2019-03-15T05:05:07.436Z,1.53
2019-03-15T05:10:10.131Z,2.13
2019-03-15T05:15:12.834Z,2.30
2019-03-15T05:20:15.551Z,1.90
2019-03-15T05:25:18.259Z,2.13
2019-03-15T05:30:20.962Z,2.07
2019-03-15T05:35:23.685Z,1.77
2019-03-15T05:40:26.413Z,1.60
2019-03-15T05:45:29.132Z,2.50
2019-03-15T05:50:31.825Z,2.20
2019-03-15T05:55:34.538Z,1.40
2019-03-15T06:00:37.251Z,2.33
2019-03-15T06:05:39.956Z,2.53
2019-03-15T06:10:42.688Z,2.10
2019-03-15T06:15:45.402Z,2.97
2019-03-15T06:20:48.107Z,2.33
2019-03-15T06:25:50.914Z,2.00
2019-03-15T06:30:53.617Z,1.20
2019-03-15T06:35:56.326Z,1.70
2019-03-15T06:40:59.194Z,2.03
2019-03-15T06:46:02.768Z,2.73
2019-03-15T06:51:05.465Z,1.63
2019-03-15T06:56:08.183Z,1.90
2019-03-15T07:01:10.898Z,2.77
2019-03-15T07:06:14.404Z,2.00
2019-03-15T07:11:17.304Z,2.73
2019-03-15T07:16:20.027Z,2.23
2019-03-15T07:21:22.735Z,2.27
2019-03-15T07:26:25.485Z,1.73
2019-03-15T07:31:28.201Z,2.80
2019-03-15T07:36:30.904Z,2.80
2019-03-15T07:41:33.603Z,2.50
2019-03-15T07:46:36.324Z,4.10
2019-03-15T07:51:39.030Z,2.20
2019-03-15T07:56:41.732Z,2.67
2019-03-15T08:01:44.430Z,3.50
2019-03-15T08:06:47.158Z,4.23
2019-03-15T08:11:49.946Z,3.57
2019-03-15T08:16:52.669Z,4.33
2019-03-15T08:21:56.710Z,3.60
2019-03-15T08:26:59.612Z,4.57
2019-03-15T08:32:02.318Z,4.60
2019-03-15T08:37:05.133Z,5.07
2019-03-15T08:42:07.830Z,5.40
2019-03-15T08:47:10.593Z,7.70
2019-03-15T08:52:13.385Z,7.20
2019-03-15T08:57:16.148Z,6.83
2019-03-15T09:02:18.847Z,7.80
2019-03-15T09:07:21.545Z,8.57
2019-03-15T09:12:24.265Z,9.33
2019-03-15T09:17:26.972Z,9.47
2019-03-15T09:22:29.712Z,9.27
2019-03-15T09:27:32.431Z,9.40
2019-03-15T09:32:35.123Z,8.27
2019-03-15T09:37:37.837Z,8.30
2019-03-15T09:42:40.554Z,7.73
2019-03-15T09:47:43.376Z,7.63
2019-03-15T09:52:46.135Z,6.03
2019-03-15T09:57:48.856Z,5.73
2019-03-15T10:02:51.571Z,5.13
2019-03-15T10:07:54.288Z,6.20
2019-03-15T10:13:05.974Z,6.23
2019-03-15T10:18:01.616Z,6.13
2019-03-15T10:23:06.243Z,6.63
2019-03-15T10:28:09.014Z,6.80
2019-03-15T10:33:11.742Z,7.57
2019-03-15T10:38:16.693Z,6.20
2019-03-15T10:43:19.076Z,6.90
2019-03-15T10:48:25.362Z,6.00
2019-03-15T10:53:26.407Z,5.40
2019-03-15T10:58:29.108Z,5.10
2019-03-15T11:03:31.829Z,4.63
2019-03-15T11:08:34.547Z,5.20
2019-03-15T11:13:37.246Z,3.20
2019-03-15T11:18:39.956Z,3.57
2019-03-15T11:23:42.669Z,2.90
2019-03-15T11:28:45.364Z,3.20
2019-03-15T11:33:48.106Z,3.10
2019-03-15T11:38:50.801Z,3.37
2019-03-15T11:43:53.532Z,2.90
2019-03-15T11:48:56.289Z,2.60
2019-03-15T11:53:59.033Z,2.07
2019-03-15T11:59:01.740Z,2.47
2019-03-15T12:04:04.446Z,1.90
2019-03-15T12:09:07.646Z,2.20
2019-03-15T12:14:10.356Z,2.63
2019-03-15T12:19:13.089Z,2.30
2019-03-15T12:24:15.786Z,2.10
2019-03-15T12:29:18.494Z,2.50
2019-03-15T12:34:21.205Z,2.40
2019-03-15T12:39:23.927Z,2.67
2019-03-15T12:44:26.627Z,2.40
2019-03-15T12:49:29.325Z,1.87
2019-03-15T12:54:32.052Z,1.90
2019-03-15T12:59:34.751Z,2.13
2019-03-15T13:04:37.455Z,1.57
2019-03-15T13:09:40.155Z,1.33
2019-03-15T13:14:42.883Z,1.73
2019-03-15T13:19:55.132Z,1.47
2019-03-15T13:24:50.214Z,1.83
2019-03-15T13:29:52.987Z,1.80
2019-03-15T13:34:55.707Z,1.90
2019-03-15T13:39:58.407Z,1.70
2019-03-15T13:45:01.125Z,1.10
2019-03-15T13:50:04.306Z,1.40
2019-03-15T13:55:07.142Z,0.97
2019-03-15T14:00:10.769Z,0.80
2019-03-15T14:05:13.579Z,1.67
2019-03-15T14:10:16.411Z,1.00
2019-03-15T14:15:19.139Z,1.73
2019-03-15T14:20:21.853Z,0.80
2019-03-15T14:25:24.652Z,0.93
2019-03-15T14:30:27.558Z,2.00
2019-03-15T14:35:30.280Z,1.43
2019-03-15T14:40:32.999Z,3.17
2019-03-15T14:45:35.822Z,0.90
2019-03-15T14:50:38.707Z,1.00
2019-03-15T14:55:41.430Z,1.50
2019-03-15T15:00:44.216Z,1.07
2019-03-15T15:05:47.605Z,1.53
2019-03-15T15:10:50.646Z,1.30
2019-03-15T15:16:02.684Z,1.00
2019-03-15T15:21:07.879Z,1.10
2019-03-15T15:26:12.127Z,1.60
2019-03-15T15:31:15.986Z,1.37
2019-03-15T15:36:19.881Z,1.00
2019-03-15T15:41:23.775Z,0.80
2019-03-15T15:46:27.613Z,0.60
2019-03-15T15:51:31.778Z,0.80
2019-03-15T15:56:35.554Z,0.70
2019-03-15T16:01:38.307Z,0.77
2019-03-15T16:06:41.076Z,0.80
2019-03-15T16:11:43.784Z,1.03
2019-03-15T16:16:46.646Z,0.97
2019-03-15T16:21:49.420Z,0.90
2019-03-15T16:26:52.151Z,0.70
2019-03-15T16:31:54.958Z,0.87
2019-03-15T16:36:57.668Z,0.80
2019-03-15T16:42:00.735Z,0.80
2019-03-15T16:47:03.464Z,1.00
2019-03-15T16:52:06.239Z,0.80
2019-03-15T16:57:09.002Z,1.00
2019-03-15T17:02:11.743Z,1.10
2019-03-15T17:07:14.481Z,2.70
2019-03-15T17:12:17.328Z,0.90
2019-03-15T17:17:20.059Z,1.40
2019-03-15T17:22:22.791Z,1.47
2019-03-15T17:27:25.506Z,0.90
2019-03-15T17:32:28.251Z,0.70
2019-03-15T17:37:31.003Z,0.90
2019-03-15T17:42:33.749Z,1.00
2019-03-15T17:47:36.552Z,1.03
2019-03-15T17:52:39.379Z,1.23
2019-03-15T17:57:45.457Z,0.80
2019-03-15T18:02:46.784Z,0.60
2019-03-15T18:07:49.499Z,0.70
2019-03-15T18:12:52.212Z,0.87
2019-03-15T18:17:54.921Z,1.60
2019-03-15T18:22:57.640Z,0.73
2019-03-15T18:28:00.353Z,1.27
2019-03-15T18:33:03.156Z,0.80
2019-03-15T18:38:05.862Z,0.87
2019-03-15T18:43:08.575Z,0.73
2019-03-15T18:48:13.032Z,1.17
2019-03-15T18:53:15.954Z,0.90
2019-03-15T18:58:18.709Z,1.10
2019-03-15T19:03:21.453Z,1.20
2019-03-15T19:08:24.167Z,1.47
2019-03-15T19:13:26.880Z,0.93
2019-03-15T19:18:29.601Z,1.37
2019-03-15T19:23:33.630Z,1.10
2019-03-15T19:28:36.554Z,1.00
2019-03-15T19:33:39.270Z,1.00
2019-03-15T19:38:42.018Z,0.90
2019-03-15T19:43:44.791Z,1.83
2019-03-15T19:48:47.532Z,1.30
2019-03-15T19:53:50.393Z,1.20
2019-03-15T19:58:53.957Z,1.30
2019-03-15T20:03:56.673Z,0.90
2019-03-15T20:08:59.406Z,1.33
2019-03-15T20:14:02.229Z,1.30
2019-03-15T20:19:04.968Z,1.20
2019-03-15T20:24:07.669Z,1.93
2019-03-15T20:29:10.368Z,1.10
2019-03-15T20:34:13.061Z,1.07
2019-03-15T20:39:15.751Z,2.53
2019-03-15T20:44:28.420Z,1.10
2019-03-15T20:49:23.308Z,1.23
2019-03-15T20:54:26.042Z,1.00
2019-03-15T20:59:28.758Z,1.37
2019-03-15T21:04:31.466Z,1.00
2019-03-15T21:09:34.167Z,1.17
2019-03-15T21:14:36.886Z,0.80
2019-03-15T21:19:39.620Z,2.93
2019-03-15T21:24:42.333Z,1.23
2019-03-15T21:29:45.050Z,1.00
2019-03-15T21:34:47.758Z,1.13
2019-03-15T21:39:50.509Z,1.30
2019-03-15T21:44:53.192Z,1.17
2019-03-15T21:49:55.933Z,1.47
2019-03-15T21:54:58.674Z,1.43
2019-03-15T22:00:01.396Z,1.33
2019-03-15T22:05:04.597Z,1.30
2019-03-15T22:10:08.626Z,1.13
2019-03-15T22:15:11.556Z,1.50
2019-03-15T22:20:14.294Z,1.67
2019-03-15T22:25:17.000Z,1.70
2019-03-15T22:30:21.847Z,1.07
2019-03-15T22:35:24.567Z,1.00
2019-03-15T22:40:27.312Z,1.03
2019-03-15T22:45:30.101Z,0.87
2019-03-15T22:50:32.817Z,1.13
2019-03-15T22:55:35.553Z,1.50
2019-03-15T23:00:38.977Z,0.83
2019-03-15T23:05:41.697Z,1.13
2019-03-15T23:10:47.028Z,0.80
2019-03-15T23:15:49.065Z,1.47
2019-03-15T23:20:51.772Z,0.90
2019-03-15T23:25:54.468Z,0.97
2019-03-15T23:30:57.196Z,1.20
2019-03-15T23:35:59.936Z,1.57
2019-03-15T23:41:02.663Z,1.03
2019-03-15T23:46:05.373Z,1.00
2019-03-15T23:51:08.157Z,0.90
2019-03-15T23:56:10.883Z,1.17
